Time;durP1;ratioP1;P1;durP2;ratioP2;P2;SDS_P1;SDS_P2;PMS_P1;PMS_P2;Temp;Humidity;BMP_temperature;BMP_pressure;BME280_temperature;BME280_humidity;BME280_pressure;Samples;Min_cycle;Max_cycle;Signal;HPM_P1;HPM_P2
2023/05/11 04:30:24;;;;;;;8.35;2.15;;;13.40;75.30;;;;;;6022655;23;20061;31
2023/05/11 04:32:49;;;;;;;4.05;2.03;;;13.40;75.40;;;;;;4867165;29;20096;-77
2023/05/11 04:35:15;;;;;;;8.15;2.20;;;13.40;75.40;;;;;;4863828;29;20044;-78
2023/05/11 04:37:40;;;;;;;9.13;2.35;;;13.30;75.40;;;;;;4849424;29;20029;-77
2023/05/11 04:40:07;;;;;;;4.20;2.03;;;13.30;75.40;;;;;;4865403;29;20113;-78
2023/05/11 04:42:32;;;;;;;3.55;2.05;;;13.30;75.40;;;;;;4863655;29;20036;-78
2023/05/11 04:44:58;;;;;;;10.02;2.00;;;13.30;75.40;;;;;;4865783;29;20093;-78
2023/05/11 04:47:23;;;;;;;7.55;2.05;;;13.30;75.80;;;;;;4865804;29;20038;-78
2023/05/11 04:49:50;;;;;;;6.03;2.28;;;13.20;75.80;;;;;;4864796;29;20044;-77
2023/05/11 04:52:16;;;;;;;10.20;2.38;;;13.20;75.70;;;;;;4865444;29;20109;-79
2023/05/11 04:54:42;;;;;;;9.73;2.25;;;13.20;75.70;;;;;;4865778;29;20162;-79
2023/05/11 04:57:07;;;;;;;6.00;1.92;;;13.30;75.80;;;;;;4865054;29;20058;-79
2023/05/11 04:59:33;;;;;;;5.38;2.00;;;13.30;75.80;;;;;;4865268;29;20041;-80
2023/05/11 05:01:58;;;;;;;7.35;2.53;;;13.30;75.90;;;;;;4862047;29;20051;-78
2023/05/11 05:04:24;;;;;;;5.40;2.42;;;13.30;75.90;;;;;;4865370;29;20095;-78
2023/05/11 05:06:50;;;;;;;5.90;2.58;;;13.30;75.70;;;;;;4864721;29;20056;-76
2023/05/11 05:09:15;;;;;;;6.25;2.47;;;13.30;75.60;;;;;;4848743;29;20034;-79
2023/05/11 05:11:41;;;;;;;6.13;2.22;;;13.40;75.50;;;;;;4863846;29;20029;-84
2023/05/11 05:14:07;;;;;;;8.30;2.47;;;13.40;75.30;;;;;;4865677;29;20045;-78
2023/05/11 05:16:32;;;;;;;3.72;2.35;;;13.50;75.10;;;;;;4863748;29;20053;-76
2023/05/11 05:18:58;;;;;;;7.97;2.67;;;13.50;75.10;;;;;;4864726;29;20511;-76
2023/05/11 05:21:24;;;;;;;6.00;2.83;;;13.50;75.10;;;;;;4863588;29;20060;-76
2023/05/11 05:23:49;;;;;;;6.60;2.65;;;13.50;75.20;;;;;;4865008;29;20025;-76
2023/05/11 05:26:15;;;;;;;4.07;2.35;;;13.60;75.10;;;;;;4865380;29;20034;-76
2023/05/11 05:28:40;;;;;;;6.82;2.53;;;13.60;75.00;;;;;;4864929;29;20033;-77
2023/05/11 05:31:06;;;;;;;8.27;2.75;;;13.70;74.90;;;;;;4885373;29;20048;-75
2023/05/11 05:33:32;;;;;;;10.05;2.40;;;13.70;75.00;;;;;;4881600;29;20037;-75
2023/05/11 05:35:57;;;;;;;8.70;2.97;;;13.70;74.90;;;;;;4897301;29;20411;-76
2023/05/11 05:38:23;;;;;;;6.40;2.30;;;13.70;75.00;;;;;;4882895;29;20032;-76
2023/05/11 05:40:49;;;;;;;6.43;2.42;;;13.70;75.00;;;;;;4882622;29;20025;-75
2023/05/11 05:43:14;;;;;;;4.13;2.33;;;13.80;74.90;;;;;;4897246;29;20068;-76
2023/05/11 05:45:40;;;;;;;6.47;2.35;;;13.80;74.90;;;;;;4883559;29;20025;-76
2023/05/11 05:48:06;;;;;;;8.50;3.00;;;13.80;74.90;;;;;;4883675;29;20036;-76
2023/05/11 05:50:32;;;;;;;5.15;2.15;;;13.90;74.90;;;;;;4882808;29;20040;-76
2023/05/11 05:52:57;;;;;;;4.88;2.58;;;13.90;74.70;;;;;;4883384;29;20037;-76
2023/05/11 05:55:23;;;;;;;8.55;3.13;;;14.00;74.50;;;;;;4883336;29;20033;-76
2023/05/11 05:57:49;;;;;;;8.40;2.97;;;14.00;74.50;;;;;;4883546;29;20037;-76
2023/05/11 06:00:15;;;;;;;10.45;2.65;;;14.00;74.50;;;;;;4882761;29;20033;-76
2023/05/11 06:02:40;;;;;;;3.53;2.13;;;14.20;74.30;;;;;;4883398;29;20064;-76
2023/05/11 06:05:06;;;;;;;6.47;2.75;;;14.20;74.10;;;;;;4870990;29;20034;-76
2023/05/11 06:07:32;;;;;;;6.75;2.63;;;14.30;74.00;;;;;;4865001;29;20034;-76
2023/05/11 06:09:58;;;;;;;4.28;2.30;;;14.20;74.30;;;;;;4879765;29;20068;-76
2023/05/11 06:12:24;;;;;;;11.40;2.92;;;14.30;74.00;;;;;;4879902;29;20039;-76
2023/05/11 06:14:49;;;;;;;9.38;2.80;;;14.30;73.70;;;;;;4880508;29;20063;-75
2023/05/11 06:17:15;;;;;;;5.63;2.47;;;14.40;73.70;;;;;;4881493;29;20032;-77
2023/05/11 06:19:41;;;;;;;9.10;2.67;;;14.50;73.70;;;;;;4881525;29;20036;-76
2023/05/11 06:22:08;;;;;;;8.27;2.65;;;14.50;73.50;;;;;;4865351;29;20169;-76
2023/05/11 06:24:33;;;;;;;5.15;2.45;;;14.50;73.40;;;;;;4882592;29;20037;-75
2023/05/11 06:26:59;;;;;;;4.03;2.50;;;14.60;73.60;;;;;;4867421;29;20393;-76
2023/05/11 06:29:25;;;;;;;5.50;2.55;;;14.60;73.70;;;;;;4885945;29;20044;-76
2023/05/11 06:31:54;;;;;;;7.18;2.83;;;14.70;73.40;;;;;;4881710;29;20096;-80
2023/05/11 06:34:21;;;;;;;4.82;2.50;;;14.70;73.10;;;;;;4881567;29;20068;-77
2023/05/11 06:36:50;;;;;;;7.10;3.08;;;14.70;73.20;;;;;;4897187;29;20112;-77
2023/05/11 06:39:16;;;;;;;10.33;2.70;;;14.70;73.20;;;;;;4882287;29;20090;-77
2023/05/11 06:41:41;;;;;;;7.07;2.80;;;14.70;73.50;;;;;;4882401;29;20556;-77
2023/05/11 06:44:07;;;;;;;7.10;2.85;;;14.80;73.20;;;;;;4881748;29;20045;-77
2023/05/11 06:46:33;;;;;;;6.75;3.30;;;14.80;72.70;;;;;;4896724;29;20575;-77
2023/05/11 06:48:59;;;;;;;5.75;2.90;;;14.90;72.70;;;;;;4880314;29;20139;-77
2023/05/11 06:51:25;;;;;;;7.00;2.65;;;15.00;72.40;;;;;;4882371;29;20037;-77
2023/05/11 06:53:50;;;;;;;7.80;2.88;;;15.20;72.10;;;;;;4882746;29;20036;-77
2023/05/11 06:56:16;;;;;;;9.55;2.70;;;15.30;71.90;;;;;;4881380;29;20090;-77
2023/05/11 06:58:42;;;;;;;9.68;2.83;;;15.50;71.50;;;;;;4881564;29;20509;-76
2023/05/11 07:01:07;;;;;;;5.07;2.45;;;15.60;71.20;;;;;;4881235;29;20021;-77
2023/05/11 07:03:34;;;;;;;8.60;2.70;;;15.70;70.90;;;;;;4864590;29;20036;-76
2023/05/11 07:05:59;;;;;;;6.85;2.55;;;15.80;70.50;;;;;;4861876;29;20045;-76
2023/05/11 07:08:25;;;;;;;6.63;3.15;;;15.80;70.60;;;;;;4862763;29;20025;-76
2023/05/11 07:10:51;;;;;;;7.68;2.95;;;15.80;70.20;;;;;;4881935;29;20029;-76
2023/05/11 07:13:17;;;;;;;9.15;3.03;;;16.00;70.30;;;;;;4881611;29;20485;-76
2023/05/11 07:15:42;;;;;;;7.57;3.65;;;16.10;69.90;;;;;;4880865;29;20037;-77
2023/05/11 07:18:08;;;;;;;6.07;3.78;;;16.30;69.60;;;;;;4882010;29;20412;-76
2023/05/11 07:20:38;;;;;;;8.65;4.22;;;16.40;68.50;;;;;;4880243;29;20032;-76
2023/05/11 07:23:04;;;;;;;8.75;3.97;;;17.10;68.10;;;;;;4882003;29;20025;-76
2023/05/11 07:25:30;;;;;;;6.28;2.90;;;17.70;66.20;;;;;;4881735;29;20036;-76
2023/05/11 07:27:56;;;;;;;10.35;3.47;;;17.80;65.70;;;;;;4864964;29;20094;-77
2023/05/11 07:30:22;;;;;;;7.80;3.75;;;18.00;64.60;;;;;;4881391;29;20036;-76
2023/05/11 07:32:48;;;;;;;9.90;3.78;;;17.90;64.10;;;;;;4881957;29;20128;-76
2023/05/11 07:35:14;;;;;;;7.93;3.22;;;17.80;64.50;;;;;;4882006;29;20061;-76
2023/05/11 07:37:40;;;;;;;10.85;3.47;;;17.80;64.90;;;;;;4881572;29;20647;-76
2023/05/11 07:40:07;;;;;;;10.93;3.25;;;17.90;64.70;;;;;;4881696;29;20101;-76
2023/05/11 07:42:32;;;;;;;7.03;2.50;;;17.90;64.60;;;;;;4881361;29;20021;-75
2023/05/11 07:44:58;;;;;;;12.98;4.15;;;18.00;64.20;;;;;;4884742;29;20021;-75
2023/05/11 07:47:24;;;;;;;8.63;3.20;;;18.10;64.40;;;;;;4885777;29;20033;-75
2023/05/11 07:49:49;;;;;;;9.95;2.85;;;18.00;64.30;;;;;;4885484;29;20025;-75
2023/05/11 07:52:16;;;;;;;6.20;2.90;;;17.80;64.70;;;;;;4883632;29;20033;-75
2023/05/11 07:54:42;;;;;;;7.07;3.03;;;17.70;64.70;;;;;;4885532;29;20037;-75
2023/05/11 07:57:10;;;;;;;4.50;2.20;;;17.50;65.30;;;;;;4884276;29;20029;-75
2023/05/11 07:59:36;;;;;;;9.02;2.53;;;17.40;65.70;;;;;;4885136;29;20062;-76
2023/05/11 08:02:03;;;;;;;7.72;2.85;;;17.50;66.20;;;;;;4885409;29;20442;-76
2023/05/11 08:04:29;;;;;;;6.80;2.65;;;17.70;65.50;;;;;;4885070;29;20037;-76
2023/05/11 08:06:55;;;;;;;7.93;2.22;;;17.90;64.90;;;;;;4868627;29;20080;-75
2023/05/11 08:09:21;;;;;;;7.07;2.13;;;18.00;64.00;;;;;;4885214;29;20091;-76
2023/05/11 08:11:47;;;;;;;7.43;1.90;;;18.10;63.70;;;;;;4883320;29;20033;-76
2023/05/11 08:14:13;;;;;;;7.53;2.33;;;18.20;63.20;;;;;;4883208;29;20044;-76
2023/05/11 08:16:38;;;;;;;6.22;2.05;;;18.40;62.60;;;;;;4885216;29;20396;-76
2023/05/11 08:19:04;;;;;;;4.63;1.83;;;18.60;62.10;;;;;;4885235;29;20116;-76
2023/05/11 08:21:31;;;;;;;7.10;2.47;;;18.80;62.10;;;;;;4884737;29;20040;-76
2023/05/11 08:23:57;;;;;;;7.93;2.00;;;19.50;60.10;;;;;;4889009;29;20056;-76
2023/05/11 08:26:23;;;;;;;8.55;2.05;;;19.50;58.60;;;;;;4899078;29;20054;-76
2023/05/11 08:28:50;;;;;;;8.27;1.85;;;19.50;59.00;;;;;;4885181;29;20060;-76
2023/05/11 08:31:17;;;;;;;3.67;1.70;;;19.20;59.70;;;;;;4884014;29;20053;-76
2023/05/11 08:33:43;;;;;;;7.60;2.00;;;19.10;60.10;;;;;;4885080;29;20508;-76
2023/05/11 08:36:09;;;;;;;8.35;2.10;;;19.10;58.80;;;;;;4884311;29;20112;-76
2023/05/11 08:38:35;;;;;;;5.10;1.60;;;19.50;58.50;;;;;;4885159;29;20033;-76
2023/05/11 08:41:01;;;;;;;8.63;2.25;;;19.60;57.70;;;;;;4884398;29;20384;-76
2023/05/11 08:43:28;;;;;;;8.73;2.40;;;19.50;57.80;;;;;;4884840;29;20165;-76
2023/05/11 08:45:59;;;;;;;5.22;1.90;;;19.50;58.70;;;;;;4867963;29;20115;-76
2023/05/11 08:48:25;;;;;;;4.75;1.48;;;20.30;56.70;;;;;;4868022;29;20029;-76
2023/05/11 08:50:51;;;;;;;3.20;1.58;;;20.40;55.70;;;;;;4867129;29;20051;-76
2023/05/11 08:53:17;;;;;;;12.77;1.92;;;21.50;54.60;;;;;;4884719;29;20029;-76
2023/05/11 08:55:44;;;;;;;6.65;1.30;;;21.10;54.50;;;;;;4897691;29;20492;-77
2023/05/11 08:58:13;;;;;;;6.43;1.60;;;20.80;55.20;;;;;;4866868;29;20029;-76
2023/05/11 09:00:39;;;;;;;6.18;1.17;;;21.50;54.40;;;;;;4884510;29;20032;-76
2023/05/11 09:03:07;;;;;;;3.70;1.45;;;22.60;51.90;;;;;;4884074;29;20479;-77
2023/05/11 09:05:33;;;;;;;5.35;1.33;;;23.30;49.40;;;;;;4883861;29;20029;-76
2023/05/11 09:08:03;;;;;;;3.70;1.08;;;23.70;45.80;;;;;;4884317;29;20025;-76
2023/05/11 09:10:28;;;;;;;7.65;1.60;;;23.90;45.00;;;;;;4884195;29;20073;-76
2023/05/11 09:12:54;;;;;;;6.65;1.23;;;24.60;44.90;;;;;;4883936;29;20108;-76
2023/05/11 09:15:20;;;;;;;6.40;1.75;;;24.70;43.90;;;;;;4884180;29;20029;-76
2023/05/11 09:17:46;;;;;;;6.05;1.35;;;23.90;45.80;;;;;;4883732;29;20034;-77
2023/05/11 09:20:11;;;;;;;5.20;1.58;;;23.00;47.20;;;;;;4882652;29;20037;-77
2023/05/11 09:22:43;;;;;;;7.45;1.40;;;22.10;47.20;;;;;;4884178;29;20025;-76
2023/05/11 09:25:13;;;;;;;6.75;1.20;;;21.30;50.50;;;;;;4867222;29;20782;-76
2023/05/11 09:27:46;;;;;;;4.68;1.65;;;20.80;51.30;;;;;;4897854;29;20025;-76
2023/05/11 09:30:15;;;;;;;8.13;1.42;;;20.50;52.70;;;;;;4883470;29;20045;-76
2023/05/11 09:33:01;;;;;;;3.83;1.20;;;20.20;53.00;;;;;;4882932;29;20056;-76
2023/05/11 09:35:34;;;;;;;4.00;1.60;;;20.10;54.40;;;;;;4868576;29;20045;-76
2023/05/11 09:38:11;;;;;;;6.13;1.42;;;20.20;54.40;;;;;;4898131;29;20029;-76
2023/05/11 09:40:38;;;;;;;3.35;1.23;;;20.70;53.10;;;;;;4882978;29;20064;-76
2023/05/11 09:43:17;;;;;;;7.55;1.00;;;22.30;50.10;;;;;;4883737;29;20028;-76
2023/05/11 09:45:47;;;;;;;4.70;1.42;;;24.60;45.60;;;;;;4866840;29;20036;-77
2023/05/11 09:48:23;;;;;;;;;;;25.30;43.90;;;;;;4867278;29;20029;-77
2023/05/11 09:50:51;;;;;;;4.40;1.08;;;27.20;39.10;;;;;;4883133;29;20395;-77
2023/05/11 09:53:17;;;;;;;2.83;0.88;;;27.20;39.10;;;;;;4883058;29;20111;-76
2023/05/11 09:55:54;;;;;;;2.55;0.77;;;26.30;39.00;;;;;;4866893;29;20033;-77
2023/05/11 09:58:20;;;;;;;4.28;1.00;;;25.10;38.60;;;;;;4883493;29;20404;-77
2023/05/11 10:00:51;;;;;;;8.10;1.20;;;24.10;41.40;;;;;;4865818;29;20116;-77
2023/05/11 10:03:17;;;;;;;3.17;1.08;;;23.30;44.50;;;;;;4883244;29;20033;-77
2023/05/11 10:05:56;;;;;;;4.05;0.90;;;22.70;45.10;;;;;;4882807;29;20037;-77
2023/05/11 10:08:28;;;;;;;4.40;1.05;;;22.40;47.50;;;;;;4883111;29;20025;-76
2023/05/11 10:10:55;;;;;;;5.80;1.30;;;22.10;47.10;;;;;;4878094;29;20061;-77
2023/05/11 10:13:22;;;;;;;7.47;1.58;;;21.90;48.10;;;;;;4864717;29;20063;-77
2023/05/11 10:15:50;;;;;;;6.32;1.20;;;21.80;47.50;;;;;;4875718;29;20041;-77
2023/05/11 10:18:17;;;;;;;4.32;1.55;;;21.80;48.80;;;;;;4882721;29;20084;-77
2023/05/11 10:20:43;;;;;;;5.13;1.25;;;21.70;47.00;;;;;;4896958;29;20085;-77
2023/05/11 10:23:10;;;;;;;7.43;1.10;;;21.60;47.40;;;;;;4882816;29;20086;-77
2023/05/11 10:25:37;;;;;;;3.10;1.00;;;21.50;48.50;;;;;;4877865;29;20506;-77
2023/05/11 10:28:03;;;;;;;7.85;1.20;;;21.30;48.70;;;;;;4885565;29;20048;-77
2023/05/11 10:30:30;;;;;;;4.97;1.10;;;21.30;49.80;;;;;;4899961;29;20060;-76
2023/05/11 10:32:56;;;;;;;5.80;1.33;;;21.30;49.80;;;;;;4894895;29;20045;-77
2023/05/11 10:35:22;;;;;;;7.03;1.27;;;21.30;51.10;;;;;;4882836;29;20089;-75
2023/05/11 10:37:48;;;;;;;2.40;0.98;;;21.20;50.20;;;;;;4881495;29;20068;-81
2023/05/11 10:40:14;;;;;;;3.85;1.10;;;21.00;50.90;;;;;;4882626;29;20029;-80
2023/05/11 10:43:03;;;;;;;3.30;1.02;;;20.80;51.00;;;;;;4865538;29;20093;-80
2023/05/11 10:45:56;;;;;;;2.72;0.93;;;20.60;51.00;;;;;;4896882;29;20025;-77
2023/05/11 10:48:33;;;;;;;4.20;1.08;;;20.40;51.50;;;;;;4882181;29;20025;-78
2023/05/11 10:51:14;;;;;;;2.70;0.93;;;20.20;51.30;;;;;;4882559;29;20040;-78
2023/05/11 10:54:17;;;;;;;3.53;0.95;;;20.00;51.20;;;;;;4896776;29;20076;-78
2023/05/11 10:57:06;;;;;;;4.45;1.73;;;19.70;52.70;;;;;;4881884;29;20136;-77
2023/05/11 10:59:50;;;;;;;3.33;1.35;;;19.50;53.90;;;;;;4896761;29;20063;-77
2023/05/11 11:02:17;;;;;;;3.40;1.40;;;19.40;55.10;;;;;;4882402;29;20029;-77
2023/05/11 11:04:50;;;;;;;3.75;1.20;;;19.30;55.00;;;;;;4877042;29;20029;-79
2023/05/11 11:07:18;;;;;;;2.25;1.20;;;19.30;55.70;;;;;;4863994;29;20491;-79
2023/05/11 11:10:04;;;;;;;2.42;1.00;;;19.20;56.30;;;;;;4876924;29;20032;-85
2023/05/11 11:12:33;;;;;;;2.85;0.88;;;19.20;56.40;;;;;;4881019;29;20029;-79
2023/05/11 11:15:05;;;;;;;4.28;0.90;;;19.30;56.10;;;;;;4881186;29;20029;-77
2023/05/11 11:17:34;;;;;;;2.28;0.70;;;19.40;56.20;;;;;;4881086;29;20501;-79
2023/05/11 11:20:07;;;;;;;1.77;0.90;;;19.50;56.00;;;;;;4881271;29;20028;-82
2023/05/11 11:22:37;;;;;;;3.33;1.00;;;19.70;55.10;;;;;;4912062;29;20044;-84
2023/05/11 11:25:04;;;;;;;3.00;0.90;;;19.80;54.50;;;;;;4882440;29;20025;-79
2023/05/11 11:27:57;;;;;;;3.05;0.98;;;19.90;54.80;;;;;;4881571;29;20089;-80
2023/05/11 11:30:28;;;;;;;5.47;1.23;;;20.20;54.90;;;;;;4878685;29;20038;-80
2023/05/11 11:33:14;;;;;;;4.05;1.33;;;20.40;54.30;;;;;;4880737;29;20061;-80
2023/05/11 11:35:43;;;;;;;1.95;1.08;;;20.60;53.90;;;;;;4858408;29;20417;-80
2023/05/11 11:38:14;;;;;;;5.47;1.00;;;20.70;53.50;;;;;;4913744;29;20096;-83
2023/05/11 11:40:45;;;;;;;2.30;0.80;;;20.60;53.50;;;;;;4876988;29;20458;-83
2023/05/11 11:43:17;;;;;;;2.53;0.73;;;20.60;51.30;;;;;;4862443;29;20029;-82
2023/05/11 11:45:55;;;;;;;3.17;0.80;;;20.80;52.30;;;;;;4863705;29;20108;-83
2023/05/11 11:48:27;;;;;;;2.10;0.70;;;20.80;49.30;;;;;;4878202;29;20128;-82
2023/05/11 11:51:02;;;;;;;2.25;0.68;;;21.00;49.60;;;;;;4881317;29;20096;-79
2023/05/11 11:53:36;;;;;;;1.85;0.70;;;21.00;49.80;;;;;;4864893;29;20068;-79
2023/05/11 11:56:15;;;;;;;2.28;0.50;;;21.10;47.90;;;;;;4895547;29;20161;-80
2023/05/11 11:58:41;;;;;;;1.50;0.60;;;21.10;47.20;;;;;;4882304;29;20112;-80
2023/05/11 12:01:14;;;;;;;2.97;0.70;;;21.00;46.70;;;;;;4896216;29;20127;-80
2023/05/11 12:03:41;;;;;;;1.00;0.50;;;20.80;47.70;;;;;;4881988;29;20180;-79
2023/05/11 12:06:08;;;;;;;2.97;0.60;;;20.80;48.20;;;;;;4881062;29;20589;-80
2023/05/11 12:08:36;;;;;;;1.35;0.60;;;20.80;47.20;;;;;;4881470;29;20029;-81
2023/05/11 12:11:03;;;;;;;1.70;0.50;;;20.80;48.10;;;;;;4880515;29;20108;-81
2023/05/11 12:13:29;;;;;;;1.73;0.60;;;20.70;47.70;;;;;;4882577;29;20053;-81
2023/05/11 12:16:11;;;;;;;2.55;0.60;;;20.70;49.30;;;;;;4881036;29;20056;-81
2023/05/11 12:18:37;;;;;;;2.45;0.60;;;20.70;49.00;;;;;;4877397;29;20098;-81
2023/05/11 12:21:03;;;;;;;0.95;0.47;;;20.80;49.80;;;;;;4880651;29;20025;-81
2023/05/11 12:23:29;;;;;;;2.13;0.50;;;20.80;50.30;;;;;;4883300;29;20025;-81
2023/05/11 12:26:05;;;;;;;1.88;0.75;;;20.80;48.20;;;;;;4880566;29;20453;-81
2023/05/11 12:28:32;;;;;;;4.88;0.95;;;21.00;49.30;;;;;;4879940;29;20037;-81
2023/05/11 12:30:58;;;;;;;1.60;0.45;;;21.10;48.90;;;;;;4882626;29;20077;-80
2023/05/11 12:33:23;;;;;;;1.88;0.60;;;21.30;48.80;;;;;;4882799;29;20040;-80
2023/05/11 12:35:54;;;;;;;1.95;0.47;;;21.50;47.70;;;;;;4867361;29;20061;-80
2023/05/11 12:38:20;;;;;;;3.70;0.60;;;21.50;45.90;;;;;;4884052;29;20029;-80
2023/05/11 12:40:50;;;;;;;1.45;0.38;;;21.60;45.70;;;;;;4882926;29;20134;-80
2023/05/11 12:43:18;;;;;;;2.08;0.60;;;21.70;44.00;;;;;;4897377;29;20088;-80
2023/05/11 12:45:45;;;;;;;2.35;0.57;;;21.70;44.90;;;;;;4881688;29;20096;-80
2023/05/11 12:48:11;;;;;;;1.90;0.68;;;21.70;44.70;;;;;;4882993;29;20379;-80
2023/05/11 12:50:45;;;;;;;2.40;0.60;;;21.60;42.40;;;;;;4867328;29;20081;-80
2023/05/11 12:53:18;;;;;;;2.70;1.17;;;21.40;44.10;;;;;;4883873;29;20060;-77
2023/05/11 12:55:53;;;;;;;1.27;0.47;;;21.30;44.50;;;;;;4884400;29;20028;-86
2023/05/11 12:58:19;;;;;;;3.72;0.70;;;21.30;43.70;;;;;;4865632;29;20037;-83
2023/05/11 13:00:58;;;;;;;2.58;0.50;;;21.30;44.10;;;;;;4882653;29;20065;-85
2023/05/11 13:03:24;;;;;;;2.93;1.07;;;21.20;44.60;;;;;;4894092;29;20021;-87
2023/05/11 13:05:51;;;;;;;4.03;0.50;;;21.10;43.60;;;;;;4866473;29;20085;-87
2023/05/11 13:08:18;;;;;;;10.45;1.60;;;21.10;43.50;;;;;;4882888;29;20076;-87
2023/05/11 13:10:46;;;;;;;2.05;0.50;;;21.00;43.70;;;;;;4882305;29;20041;-86
2023/05/11 13:13:25;;;;;;;3.08;0.73;;;21.10;44.90;;;;;;4866164;29;20029;-87
2023/05/11 13:15:51;;;;;;;1.15;0.52;;;21.00;44.30;;;;;;4881756;29;20117;-86
2023/05/11 13:18:16;;;;;;;2.55;0.90;;;21.00;44.20;;;;;;4881976;29;20033;-86
2023/05/11 13:20:43;;;;;;;4.50;0.73;;;21.00;44.60;;;;;;4883416;29;20073;-86
2023/05/11 13:23:10;;;;;;;2.20;0.60;;;20.90;44.80;;;;;;4865200;29;20112;-87
2023/05/11 13:25:45;;;;;;;2.10;0.77;;;20.80;45.50;;;;;;4881090;29;20029;-87
2023/05/11 13:28:13;;;;;;;3.78;0.88;;;20.80;46.70;;;;;;4893170;29;20107;-88
2023/05/11 13:30:38;;;;;;;3.63;1.25;;;20.80;46.10;;;;;;4876924;29;20525;-87
2023/05/11 13:33:04;;;;;;;3.88;0.77;;;20.70;46.70;;;;;;4873788;29;20037;-84
2023/05/11 13:35:29;;;;;;;2.78;0.50;;;20.70;46.40;;;;;;4880150;29;20032;-84
2023/05/11 13:37:56;;;;;;;3.33;0.90;;;20.70;46.80;;;;;;4881012;29;20033;-84
2023/05/11 13:40:22;;;;;;;4.65;1.30;;;20.70;46.20;;;;;;4883895;29;20060;-85
2023/05/11 13:42:47;;;;;;;3.25;0.85;;;20.80;47.50;;;;;;4867033;29;20040;-85
2023/05/11 13:45:13;;;;;;;5.13;1.05;;;20.90;46.70;;;;;;4883608;29;20032;-85
2023/05/11 13:47:39;;;;;;;3.55;0.95;;;21.10;46.50;;;;;;4882531;29;20412;-87
2023/05/11 13:50:05;;;;;;;3.72;0.98;;;21.20;46.60;;;;;;4881840;29;20037;-85
2023/05/11 13:52:31;;;;;;;3.85;1.15;;;21.10;49.00;;;;;;4883099;29;20201;-86
2023/05/11 13:54:57;;;;;;;5.28;1.05;;;21.00;49.90;;;;;;4882795;29;20057;-85
2023/05/11 13:57:23;;;;;;;3.33;1.08;;;21.00;50.40;;;;;;4866727;29;20029;-84
2023/05/11 13:59:49;;;;;;;3.53;0.90;;;20.80;50.40;;;;;;4882046;29;20032;-84
2023/05/11 14:02:15;;;;;;;4.05;1.30;;;20.60;51.40;;;;;;4881625;29;20043;-86
2023/05/11 14:04:45;;;;;;;4.75;0.88;;;20.30;51.80;;;;;;4886079;29;20029;-84
2023/05/11 14:07:11;;;;;;;3.67;1.23;;;20.10;52.50;;;;;;4881026;29;20036;-86
2023/05/11 14:09:36;;;;;;;3.65;1.45;;;19.90;53.10;;;;;;4881412;29;20112;-87
2023/05/11 14:12:02;;;;;;;3.28;1.23;;;19.80;53.00;;;;;;4879394;29;20032;-86
2023/05/11 14:14:28;;;;;;;7.82;1.40;;;19.80;52.90;;;;;;4864153;29;20039;-87
2023/05/11 14:16:53;;;;;;;2.58;1.17;;;19.70;53.50;;;;;;4881088;29;20556;-85
2023/05/11 14:19:19;;;;;;;4.90;1.55;;;19.70;53.50;;;;;;4880757;29;20036;-84
2023/05/11 14:21:45;;;;;;;4.25;1.13;;;19.80;53.70;;;;;;4866050;29;20033;-84
2023/05/11 14:24:10;;;;;;;3.85;1.10;;;19.70;53.00;;;;;;4886112;29;20503;-84
2023/05/11 14:26:37;;;;;;;4.25;1.38;;;19.80;52.70;;;;;;4883284;29;20029;-84
2023/05/11 14:29:02;;;;;;;4.38;1.10;;;19.80;52.90;;;;;;4881419;29;20036;-84
2023/05/11 14:31:28;;;;;;;7.45;1.20;;;19.80;53.00;;;;;;4882223;29;20045;-84
2023/05/11 14:33:55;;;;;;;3.88;1.13;;;20.00;52.90;;;;;;4866166;29;20052;-85
2023/05/11 14:36:21;;;;;;;3.30;1.08;;;20.10;53.40;;;;;;4882692;29;20024;-85
2023/05/11 14:38:47;;;;;;;2.67;0.93;;;20.30;51.70;;;;;;4882617;29;20052;-85
2023/05/11 14:41:12;;;;;;;5.40;1.08;;;20.30;52.40;;;;;;4881957;29;20072;-86
2023/05/11 14:43:38;;;;;;;4.15;1.00;;;20.40;52.60;;;;;;4882060;29;20498;-85
2023/05/11 14:46:03;;;;;;;3.15;0.85;;;20.50;52.50;;;;;;4882166;29;20025;-85
2023/05/11 14:48:29;;;;;;;3.22;1.20;;;20.50;52.60;;;;;;4861399;29;20026;-84
2023/05/11 14:50:55;;;;;;;3.80;0.90;;;20.60;52.60;;;;;;4864100;29;20046;-84
2023/05/11 14:53:20;;;;;;;2.92;1.00;;;20.60;51.90;;;;;;4863884;29;20018;-84
2023/05/11 14:55:46;;;;;;;4.07;1.33;;;20.60;50.90;;;;;;4880039;29;20029;-85
2023/05/11 14:58:12;;;;;;;2.50;0.85;;;20.70;51.40;;;;;;4882621;29;20044;-85
2023/05/11 15:00:39;;;;;;;3.35;1.10;;;20.80;51.30;;;;;;4865383;29;20037;-85
2023/05/11 15:03:06;;;;;;;4.32;1.15;;;20.90;51.20;;;;;;4878396;29;20548;-85
2023/05/11 15:05:32;;;;;;;5.28;0.98;;;21.00;47.90;;;;;;4880555;29;20047;-84
2023/05/11 15:07:58;;;;;;;3.25;0.70;;;21.00;48.80;;;;;;4877736;29;20020;-85
2023/05/11 15:10:24;;;;;;;4.03;1.33;;;21.00;48.60;;;;;;4886909;29;20029;-84
2023/05/11 15:12:49;;;;;;;3.55;0.73;;;21.00;48.20;;;;;;4880350;29;20025;-83
2023/05/11 15:15:15;;;;;;;4.18;1.10;;;21.00;49.30;;;;;;4879260;29;20041;-85
2023/05/11 15:17:41;;;;;;;6.80;1.25;;;20.80;49.60;;;;;;4881850;29;20025;-85
2023/05/11 15:20:07;;;;;;;3.40;0.80;;;20.60;50.50;;;;;;4881522;29;20492;-84
2023/05/11 15:22:33;;;;;;;6.60;1.13;;;20.30;52.30;;;;;;4881687;29;20069;-84
2023/05/11 15:24:58;;;;;;;6.15;1.58;;;20.10;53.60;;;;;;4865028;29;20040;-84
2023/05/11 15:27:24;;;;;;;2.47;1.20;;;19.80;54.50;;;;;;4882076;29;20056;-84
2023/05/11 15:29:50;;;;;;;6.78;1.50;;;19.60;56.10;;;;;;4865075;29;20033;-84
2023/05/11 15:32:16;;;;;;;3.35;1.10;;;19.40;57.80;;;;;;4879660;29;20053;-84
2023/05/11 15:34:42;;;;;;;4.70;2.17;;;19.20;58.90;;;;;;4864979;29;20734;-84
2023/05/11 15:37:10;;;;;;;3.35;1.10;;;19.20;58.40;;;;;;4883819;29;20139;-85
2023/05/11 15:39:37;;;;;;;2.85;0.93;;;19.30;58.80;;;;;;4884829;29;20025;-86
2023/05/11 15:42:03;;;;;;;2.97;1.00;;;19.60;60.10;;;;;;4881805;29;20494;-85
2023/05/11 15:44:29;;;;;;;2.38;0.90;;;19.80;58.10;;;;;;4881310;29;20104;-85
2023/05/11 15:46:55;;;;;;;2.10;0.80;;;19.80;58.70;;;;;;4881052;29;20064;-85
2023/05/11 15:49:21;;;;;;;4.40;1.15;;;19.80;59.20;;;;;;4880766;29;20025;-84
2023/05/11 15:51:46;;;;;;;2.67;1.05;;;19.70;58.50;;;;;;4879970;29;20034;-84
2023/05/11 15:54:12;;;;;;;4.90;1.20;;;19.60;58.80;;;;;;4864349;29;20404;-87
2023/05/11 15:56:37;;;;;;;3.90;0.95;;;19.50;59.40;;;;;;4880155;29;20043;-86
2023/05/11 15:59:03;;;;;;;3.53;1.10;;;19.30;59.40;;;;;;4888032;29;20436;-84
2023/05/11 16:01:29;;;;;;;4.00;1.08;;;19.30;60.60;;;;;;4892440;29;20040;-84
2023/05/11 16:03:55;;;;;;;4.40;1.08;;;19.40;60.80;;;;;;4880406;29;20117;-85
2023/05/11 16:06:20;;;;;;;6.80;1.17;;;19.40;60.70;;;;;;4859748;29;20025;-92
2023/05/11 16:08:46;;;;;;;3.25;1.40;;;19.40;60.60;;;;;;4884629;29;20029;-91
2023/05/11 16:11:12;;;;;;;3.63;1.10;;;19.50;60.80;;;;;;4867252;29;20044;-86
2023/05/11 16:13:37;;;;;;;3.90;1.17;;;19.40;60.50;;;;;;4880969;29;20026;-84
2023/05/11 16:16:03;;;;;;;4.80;1.15;;;19.40;61.00;;;;;;4895586;29;20036;-84
2023/05/11 16:18:29;;;;;;;2.75;0.95;;;19.50;61.00;;;;;;4868655;29;20045;-84
2023/05/11 16:20:55;;;;;;;2.75;0.88;;;19.40;61.10;;;;;;4881526;29;20052;-84
2023/05/11 16:23:21;;;;;;;4.32;1.13;;;19.30;61.70;;;;;;4866343;29;20024;-84
2023/05/11 16:25:46;;;;;;;5.13;1.15;;;19.20;61.00;;;;;;4866193;29;20025;-83
2023/05/11 16:28:12;;;;;;;3.08;1.33;;;19.10;61.30;;;;;;4883712;29;20033;-84
2023/05/11 16:30:38;;;;;;;3.67;1.40;;;19.00;61.90;;;;;;4866675;29;20047;-84
2023/05/11 16:33:03;;;;;;;3.88;0.95;;;18.90;61.80;;;;;;4884030;29;20453;-84
2023/05/11 16:35:29;;;;;;;3.53;0.90;;;18.90;61.40;;;;;;4883009;29;20029;-84
2023/05/11 16:37:58;;;;;;;2.65;0.77;;;18.90;61.60;;;;;;4883844;29;20039;-83
2023/05/11 16:40:24;;;;;;;4.60;1.15;;;18.80;61.20;;;;;;4883882;29;20045;-85
2023/05/11 16:42:49;;;;;;;3.15;0.90;;;18.90;60.80;;;;;;4866667;29;20080;-87
2023/05/11 16:45:15;;;;;;;2.53;0.90;;;18.90;60.80;;;;;;4867979;29;20029;-84
2023/05/11 16:47:43;;;;;;;4.13;1.00;;;18.90;60.50;;;;;;4884189;29;20029;-84
2023/05/11 16:50:12;;;;;;;3.25;1.05;;;18.90;60.10;;;;;;4884518;29;20035;-83
2023/05/11 16:52:38;;;;;;;5.97;1.58;;;18.90;60.40;;;;;;4884058;29;20036;-83
2023/05/11 16:55:04;;;;;;;3.35;0.80;;;18.80;60.50;;;;;;4884347;29;20489;-83
2023/05/11 16:57:30;;;;;;;2.63;0.80;;;18.80;60.30;;;;;;4882745;29;20029;-83
2023/05/11 16:59:56;;;;;;;4.07;0.82;;;18.70;60.60;;;;;;4884094;29;20132;-80
2023/05/11 17:02:22;;;;;;;3.90;1.00;;;18.80;60.60;;;;;;4887746;29;20045;-84
2023/05/11 17:04:48;;;;;;;2.75;0.88;;;18.90;59.50;;;;;;4882392;29;20456;-84
2023/05/11 17:07:14;;;;;;;2.60;1.13;;;18.90;59.30;;;;;;4884171;29;20029;-82
2023/05/11 17:09:40;;;;;;;3.95;0.80;;;18.90;58.80;;;;;;4883415;29;20049;-85
2023/05/11 17:12:08;;;;;;;5.10;1.10;;;18.90;58.30;;;;;;4881437;29;20037;-83
2023/05/11 17:14:34;;;;;;;4.80;1.35;;;18.80;58.70;;;;;;4869220;29;20051;-86
2023/05/11 17:17:02;;;;;;;2.15;0.70;;;18.80;59.00;;;;;;4882381;29;20500;-82